Mardin Airport

LTCR · 马尔丁省, 土耳其

罗盘
风向 的 风向 的 风向 到 风向 360° Mardin Airport 3/21
风: 10 kt, 3 beaufort

8 kt

6 kt
改变
0 ft 1.000 2.000 3.000 4.000 5.000
CAVOK
METAR LTCR 032050Z 36010KT 330V030 CAVOK 09/00 Q1014

METAR Mardin Airport - LTCR/MQM

Mardin Airport是,土耳其中的中型机场。 该机场位于纬度37,22330和经度40,63170。 该机场有一条跑道: 3/21. 本场的ICAO机场代码为LTCR。 该机场的IATA代码为MQM。 机场在Ankara FIR中。

该航空气象观测是针对Mardin Airport在2024年3月3日 23:50, 当地时间进行的。

机场观察

风向为360°,速度为10 kt。 风向在330°和030°之间变化。

天气为CAVOK。这意味着在5.000 ft或MSA(最低安全高度)以下(以较高者为准)以下没有云。这也意味着没有观测到积雨云或高耸的积云,可见度为10 km 或者更多或更高。此外,不会有雾,降雨或其他重要天气。

温度为9 °C,阵风为5 °C。 海平面上的气压为1014 hPa (QNH)。

白天

今天,太阳从06:45升起,在18:13降落。 这适用于Mardin Airport,世界夏令时可能有所不同。 当地时间与世界标准时间之间的时差为+3 小时。 当前,没有夏令时有效。

公司介绍

我们没有关于这个机场的公司信息。

体会

到Vliegles.nl去找飞行课程,跳伞和其他飞行体验。 浏览页面,了解Mardin Airport附近所有可用的活动。 你也可以使用搜索功能来寻找你所在地附近的特定飞行课程、跳伞或其他飞行体验。

跑道

Id 标题 侧风 逆风 侧风 %
3/21 037°-217° 6 kt 8 kt 60 %

逆风成分最大的方向会被突出显示,并用于横风计算。 这并不一定意味着这个方向在使用。

温度 & 天气

温度 9 °C
露点 0 °C
相对湿度 54%
风寒 5 °C
Kp-index 4 (0-9)

白天

日出
06:45 (4:31)
中午
12:29
日落
18:13

小工具

你想在你的网站上有一个关于Mardin Airport的当前航空天气(METAR)的小部件吗?

显示HTML代码
?>